Time;durP1;ratioP1;P1;durP2;ratioP2;P2;SDS_P1;SDS_P2;PMS_P1;PMS_P2;Temp;Humidity;BMP_temperature;BMP_pressure;BME280_temperature;BME280_humidity;BME280_pressure;Samples;Min_cycle;Max_cycle;Signal;HPM_P1;HPM_P2
2023/04/27 00:00:31;;;;;;;;;;;8.20;69.20;;;;;;5090410;28;19928;-67
2023/04/27 00:02:57;;;;;;;;;;;8.20;69.00;;;;;;5090115;28;19928;-67
2023/04/27 00:05:24;;;;;;;;;;;8.20;68.80;;;;;;5089206;28;19950;-68
2023/04/27 00:07:51;;;;;;;;;;;8.20;68.70;;;;;;5088445;28;19928;-68
2023/04/27 00:10:18;;;;;;;;;;;8.20;68.70;;;;;;5087440;28;20026;-68
2023/04/27 00:12:46;;;;;;;;;;;8.20;69.00;;;;;;5087324;28;19974;-68
2023/04/27 00:15:13;;;;;;;;;;;8.20;69.10;;;;;;5089653;28;19928;-67
2023/04/27 00:17:39;;;;;;;;;;;8.20;69.30;;;;;;5089888;28;19928;-68
2023/04/27 00:20:10;;;;;;;;;;;8.20;69.70;;;;;;5088245;28;19932;-67
2023/04/27 00:22:37;;;;;;;;;;;8.20;69.50;;;;;;5083376;28;20401;-67
2023/04/27 00:25:04;;;;;;;;;;;8.10;69.30;;;;;;5087981;28;20011;-67
2023/04/27 00:27:31;;;;;;;;;;;8.10;69.30;;;;;;5089038;28;20386;-67
2023/04/27 00:29:59;;;;;;;;;;;8.00;69.40;;;;;;5085294;28;20345;-66
2023/04/27 00:32:26;;;;;;;;;;;8.00;69.60;;;;;;5082505;28;20286;-67
2023/04/27 00:34:53;;;;;;;;;;;8.00;70.00;;;;;;5082564;28;19928;-66
2023/04/27 00:37:20;;;;;;;;;;;8.00;70.30;;;;;;5081858;28;19932;-67
2023/04/27 00:39:47;;;;;;;;;;;8.00;70.70;;;;;;5066101;28;20357;-69
2023/04/27 00:42:18;;;;;;;;;;;8.00;70.60;;;;;;5087588;28;19930;-67
2023/04/27 00:44:45;;;;;;;;;;;7.90;71.10;;;;;;5089816;28;19935;-67
2023/04/27 00:47:13;;;;;;;;;;;7.90;71.00;;;;;;5069271;28;19951;-66
2023/04/27 00:49:40;;;;;;;;;;;7.90;71.00;;;;;;5071000;28;19935;-66
2023/04/27 00:52:07;;;;;;;;;;;8.00;70.60;;;;;;5088564;28;19931;-69
2023/04/27 00:54:34;;;;;;;;;;;7.90;70.70;;;;;;5089598;28;19928;-68
2023/04/27 00:57:01;;;;;;;;;;;7.90;70.80;;;;;;5092814;28;19924;-67
2023/04/27 00:59:28;;;;;;;;;;;7.90;70.90;;;;;;5072605;28;19928;-67
2023/04/27 01:01:55;;;;;;;;;;;7.90;71.20;;;;;;5092661;28;19928;-66
2023/04/27 01:04:24;;;;;;;;;;;7.90;70.90;;;;;;5090764;28;20358;-66
2023/04/27 01:06:52;;;;;;;;;;;7.90;71.10;;;;;;5073052;28;19928;-68
2023/04/27 01:09:19;;;;;;;;;;;7.90;71.10;;;;;;5071590;28;20070;-67
2023/04/27 01:11:46;;;;;;;;;;;7.90;71.30;;;;;;5087988;28;19963;-67
2023/04/27 01:14:13;;;;;;;;;;;7.90;71.40;;;;;;5074070;28;20340;-67
2023/04/27 01:16:39;;;;;;;;;;;7.80;71.40;;;;;;5086569;28;20378;-67
2023/04/27 01:19:08;;;;;;;;;;;7.90;71.30;;;;;;5093224;28;19982;-66
2023/04/27 01:21:36;;;;;;;;;;;7.90;71.20;;;;;;5087965;28;19932;-67
2023/04/27 01:24:06;;;;;;;;;;;7.90;70.90;;;;;;5092192;28;19928;-66
2023/04/27 01:26:32;;;;;;;;;;;7.90;70.70;;;;;;5090139;28;19946;-67
2023/04/27 01:28:59;;;;;;;;;;;7.90;70.90;;;;;;5088108;28;19932;-67
2023/04/27 01:31:27;;;;;;;;;;;7.80;71.10;;;;;;5074010;28;19932;-66
2023/04/27 01:33:54;;;;;;;;;;;7.80;71.30;;;;;;5089352;28;19932;-67
2023/04/27 01:36:20;;;;;;;;;;;7.80;71.50;;;;;;5071061;28;20370;-67
2023/04/27 01:38:48;;;;;;;;;;;7.80;71.40;;;;;;5070386;28;19935;-68
2023/04/27 01:41:17;;;;;;;;;;;7.80;71.50;;;;;;5089674;28;20019;-66
2023/04/27 01:43:44;;;;;;;;;;;7.70;71.70;;;;;;5071557;28;20267;-66
2023/04/27 01:46:11;;;;;;;;;;;7.70;71.80;;;;;;5085671;28;19934;-66
2023/04/27 01:48:38;;;;;;;;;;;7.70;71.80;;;;;;5090902;28;19925;-66
2023/04/27 01:51:05;;;;;;;;;;;7.70;71.90;;;;;;5066213;28;19924;-66
2023/04/27 01:53:33;;;;;;;;;;;7.70;71.80;;;;;;5091194;28;20435;-67
2023/04/27 01:56:00;;;;;;;;;;;7.70;71.80;;;;;;5090192;28;19936;-66
2023/04/27 01:58:28;;;;;;;;;;;7.80;71.80;;;;;;5073426;28;19924;-66
2023/04/27 02:00:54;;;;;;;;;;;7.70;71.90;;;;;;5090201;28;19928;-68
2023/04/27 02:03:22;;;;;;;;;;;7.70;72.20;;;;;;5072645;28;19924;-66
2023/04/27 02:05:50;;;;;;;;;;;7.70;72.40;;;;;;5083842;28;20024;-66
2023/04/27 02:08:17;;;;;;;;;;;7.60;72.60;;;;;;5087647;28;19924;-66
2023/04/27 02:10:44;;;;;;;;;;;7.60;72.60;;;;;;5073108;28;19924;-66
2023/04/27 02:13:11;;;;;;;;;;;7.60;72.60;;;;;;5090025;28;19971;-65
2023/04/27 02:15:39;;;;;;;;;;;7.60;72.80;;;;;;5089896;28;20387;-66
2023/04/27 02:18:06;;;;;;;;;;;7.60;73.00;;;;;;5085670;28;19928;-66
2023/04/27 02:20:33;;;;;;;;;;;7.60;73.00;;;;;;5085599;28;19939;-67
2023/04/27 02:23:00;;;;;;;;;;;7.60;73.10;;;;;;5070119;28;19928;-68
2023/04/27 02:25:27;;;;;;;;;;;7.60;73.10;;;;;;5087686;28;20010;-67
2023/04/27 02:27:54;;;;;;;;;;;7.50;73.20;;;;;;5072843;28;19928;-67
2023/04/27 02:30:21;;;;;;;;;;;7.60;73.20;;;;;;5087626;28;19928;-66
2023/04/27 02:32:49;;;;;;;;;;;7.60;73.10;;;;;;5088328;28;20323;-67
2023/04/27 02:35:16;;;;;;;;;;;7.60;73.40;;;;;;5070148;28;19964;-66
2023/04/27 02:37:43;;;;;;;;;;;7.50;73.50;;;;;;5090760;28;19924;-66
2023/04/27 02:40:10;;;;;;;;;;;7.50;73.50;;;;;;5069461;28;19985;-67
2023/04/27 02:42:37;;;;;;;;;;;7.50;73.40;;;;;;5088216;28;19928;-67
2023/04/27 02:45:05;;;;;;;;;;;7.50;73.40;;;;;;5087177;28;19928;-68
2023/04/27 02:47:32;;;;;;;;;;;7.50;73.30;;;;;;5070425;28;20003;-66
2023/04/27 02:50:00;;;;;;;;;;;7.40;73.30;;;;;;5069898;28;19924;-67
2023/04/27 02:52:27;;;;;;;;;;;7.40;73.60;;;;;;5088820;28;20319;-67
2023/04/27 02:54:56;;;;;;;;;;;7.40;73.50;;;;;;5087486;28;20399;-66
2023/04/27 02:57:22;;;;;;;;;;;7.40;73.40;;;;;;5072172;28;20336;-67
2023/04/27 02:59:49;;;;;;;;;;;7.40;73.10;;;;;;5084684;28;19931;-67
2023/04/27 03:02:16;;;;;;;;;;;7.40;73.10;;;;;;5088563;28;19932;-66
2023/04/27 03:04:43;;;;;;;;;;;7.40;73.30;;;;;;5073405;28;19939;-66
2023/04/27 03:07:11;;;;;;;;;;;7.50;73.40;;;;;;5068049;28;20433;-66
2023/04/27 03:09:38;;;;;;;;;;;7.40;73.30;;;;;;5087631;28;19927;-67
2023/04/27 03:12:05;;;;;;;;;;;7.40;73.40;;;;;;5088323;28;19935;-67
2023/04/27 03:14:32;;;;;;;;;;;7.40;73.40;;;;;;5066912;28;20390;-68
2023/04/27 03:16:58;;;;;;;;;;;7.30;73.20;;;;;;5085658;28;21211;-67
2023/04/27 03:19:25;;;;;;;;;;;7.30;73.20;;;;;;5089065;28;19967;-66
2023/04/27 03:21:52;;;;;;;;;;;7.40;73.20;;;;;;5090552;28;20375;-67
2023/04/27 03:24:20;;;;;;;;;;;7.30;73.20;;;;;;5088657;28;20019;-67
2023/04/27 03:26:47;;;;;;;;;;;7.30;73.30;;;;;;5087032;28;19989;-67
2023/04/27 03:29:14;;;;;;;;;;;7.30;73.40;;;;;;5087336;28;19928;-67
2023/04/27 03:31:41;;;;;;;;;;;7.30;73.50;;;;;;5068600;28;20021;-67
2023/04/27 03:34:07;;;;;;;;;;;7.30;73.70;;;;;;5087134;28;19938;-67
2023/04/27 03:36:34;;;;;;;;;;;7.30;73.90;;;;;;5089373;28;20374;-67
2023/04/27 03:39:02;;;;;;;;;;;7.30;73.90;;;;;;5087065;28;20378;-66
2023/04/27 03:41:30;;;;;;;;;;;7.30;73.90;;;;;;5082512;28;19928;-66
2023/04/27 03:43:57;;;;;;;;;;;7.30;74.00;;;;;;5063351;28;19932;-67
2023/04/27 03:46:24;;;;;;;;;;;7.30;73.50;;;;;;5067574;28;19928;-67
2023/04/27 03:48:51;;;;;;;;;;;7.30;73.40;;;;;;5087224;28;19955;-66
2023/04/27 03:51:18;;;;;;;;;;;7.30;73.50;;;;;;5070721;28;19935;-68
2023/04/27 03:53:46;;;;;;;;;;;7.30;73.50;;;;;;5070167;28;19978;-67
2023/04/27 03:56:13;;;;;;;;;;;7.30;73.60;;;;;;5065705;28;20354;-66
2023/04/27 03:58:41;;;;;;;;;;;7.30;73.50;;;;;;5089020;28;19935;-66
2023/04/27 04:01:13;;;;;;;;;;;7.40;73.40;;;;;;5085131;28;19990;-67
2023/04/27 04:03:40;;;;;;;;;;;7.40;73.10;;;;;;5069546;28;20331;-67
2023/04/27 04:06:08;;;;;;;;;;;7.40;73.20;;;;;;5071067;28;20959;-67
2023/04/27 04:08:35;;;;;;;;;;;7.30;73.40;;;;;;5086510;28;20446;-67
2023/04/27 04:11:02;;;;;;;;;;;7.30;73.60;;;;;;5087229;28;19967;-67
2023/04/27 04:13:29;;;;;;;;;;;7.30;73.30;;;;;;5066220;28;19939;-68
2023/04/27 04:16:07;;;;;;;;;;;7.30;73.60;;;;;;5069083;28;19925;-67
2023/04/27 04:18:35;;;;;;;;;;;7.20;73.80;;;;;;5071796;28;19928;-67
2023/04/27 04:21:02;;;;;;;;;;;7.20;73.90;;;;;;5086285;28;19928;-67
2023/04/27 04:23:29;;;;;;;;;;;7.30;73.70;;;;;;5065169;28;20019;-67
2023/04/27 04:25:56;;;;;;;;;;;7.20;74.00;;;;;;5070003;28;19940;-68
2023/04/27 04:28:25;;;;;;;;;;;7.20;74.20;;;;;;5066876;28;19928;-67
2023/04/27 04:30:52;;;;;;;;;;;7.20;74.20;;;;;;5070548;28;19963;-68
2023/04/27 04:33:20;;;;;;;;;;;7.20;74.60;;;;;;5093544;28;19950;-67
2023/04/27 04:35:47;;;;;;;;;;;7.10;74.80;;;;;;5089802;28;19928;-67
2023/04/27 04:38:14;;;;;;;;;;;7.10;74.90;;;;;;5092573;28;20630;-68
2023/04/27 04:40:41;;;;;;;;;;;7.10;74.90;;;;;;5073028;28;20017;-68
2023/04/27 04:43:09;;;;;;;;;;;7.10;74.90;;;;;;5090198;28;19932;-67
2023/04/27 04:45:37;;;;;;;;;;;7.10;74.80;;;;;;5073905;28;19936;-67
2023/04/27 04:48:04;;;;;;;;;;;7.10;75.00;;;;;;5072641;28;20374;-68
2023/04/27 04:50:32;;;;;;;;;;;7.00;75.20;;;;;;5068387;28;19963;-67
2023/04/27 04:52:59;;;;;;;;;;;7.10;75.00;;;;;;5071170;28;19931;-68
2023/04/27 04:55:27;;;;;;;;;;;7.10;75.00;;;;;;5074002;28;19924;-68
2023/04/27 04:57:54;;;;;;;;;;;7.10;75.00;;;;;;5071057;28;19967;-68
2023/04/27 05:00:22;;;;;;;;;;;7.10;75.20;;;;;;5091408;28;19956;-67
2023/04/27 05:02:48;;;;;;;;;;;7.20;75.00;;;;;;5087083;28;19947;-68
2023/04/27 05:05:15;;;;;;;;;;;7.20;74.90;;;;;;5088705;28;19936;-68
2023/04/27 05:07:43;;;;;;;;;;;7.20;74.60;;;;;;5088215;28;19928;-67
2023/04/27 05:10:10;;;;;;;;;;;7.20;74.50;;;;;;5092669;28;20034;-67
2023/04/27 05:12:37;;;;;;;;;;;7.30;74.10;;;;;;5070378;28;19928;-68
2023/04/27 05:15:05;;;;;;;;;;;7.30;73.70;;;;;;5088517;28;20057;-68
2023/04/27 05:17:31;;;;;;;;;;;7.40;73.50;;;;;;5090230;28;19924;-67
2023/04/27 05:19:58;;;;;;;;;;;7.30;73.40;;;;;;5091609;28;19932;-68
2023/04/27 05:22:25;;;;;;;;;;;7.30;73.40;;;;;;5090856;28;19928;-67
2023/04/27 05:24:53;;;;;;;;;;;7.30;73.70;;;;;;5091027;28;19959;-68
2023/04/27 05:27:20;;;;;;;;;;;7.30;73.80;;;;;;5090356;28;19928;-67
2023/04/27 05:29:47;;;;;;;;;;;7.30;73.70;;;;;;5091361;28;19929;-67
2023/04/27 05:32:13;;;;;;;;;;;7.30;73.70;;;;;;5091090;28;19924;-68
2023/04/27 05:34:42;;;;;;;;;;;7.40;73.80;;;;;;5083541;28;20024;-67
2023/04/27 05:37:09;;;;;;;;;;;7.40;73.80;;;;;;5086428;28;19928;-68
2023/04/27 05:39:36;;;;;;;;;;;7.40;73.80;;;;;;5091563;28;19950;-68
2023/04/27 05:42:04;;;;;;;;;;;7.40;73.70;;;;;;5086813;28;19985;-67
2023/04/27 05:44:31;;;;;;;;;;;7.50;73.60;;;;;;5091095;28;19956;-68
2023/04/27 05:46:58;;;;;;;;;;;7.50;73.10;;;;;;5088914;28;19932;-68
2023/04/27 05:49:25;;;;;;;;;;;7.50;72.80;;;;;;5086214;28;19928;-68
2023/04/27 05:51:52;;;;;;;;;;;7.60;72.60;;;;;;5085841;28;19998;-68
2023/04/27 05:54:19;;;;;;;;;;;7.60;72.60;;;;;;5086879;28;20005;-67
2023/04/27 05:56:46;;;;;;;;;;;7.70;72.50;;;;;;5088284;28;20351;-67
2023/04/27 05:59:14;;;;;;;;;;;7.70;72.40;;;;;;5090566;28;19924;-67
2023/04/27 06:01:40;;;;;;;;;;;7.70;71.80;;;;;;5089884;28;19924;-67
2023/04/27 06:04:07;;;;;;;;;;;7.80;71.40;;;;;;5085336;28;19927;-67
2023/04/27 06:06:34;;;;;;;;;;;7.80;71.10;;;;;;5087803;28;19935;-68
2023/04/27 06:09:03;;;;;;;;;;;7.80;71.00;;;;;;5089329;28;20461;-68
2023/04/27 06:11:30;;;;;;;;;;;7.80;70.90;;;;;;5089608;28;19928;-66
2023/04/27 06:13:56;;;;;;;;;;;7.90;70.80;;;;;;5089138;28;19934;-68
2023/04/27 06:16:25;;;;;;;;;;;7.90;70.40;;;;;;5087899;28;19936;-68
2023/04/27 06:18:51;;;;;;;;;;;8.00;70.30;;;;;;5073832;28;20401;-67
2023/04/27 06:21:19;;;;;;;;;;;8.00;69.90;;;;;;5088417;28;19924;-67
2023/04/27 06:23:48;;;;;;;;;;;8.10;69.60;;;;;;5091049;28;20042;-68
2023/04/27 06:26:15;;;;;;;;;;;8.10;69.40;;;;;;5089767;28;20786;-68
2023/04/27 06:28:42;;;;;;;;;;;8.10;69.20;;;;;;5089491;28;19940;-67
2023/04/27 06:31:08;;;;;;;;;;;8.10;68.90;;;;;;5086070;28;19928;-68
2023/04/27 06:33:37;;;;;;;;;;;8.20;68.80;;;;;;5087681;28;19932;-67
2023/04/27 06:36:03;;;;;;;;;;;8.30;68.30;;;;;;5088869;28;19959;-67
2023/04/27 06:38:30;;;;;;;;;;;8.30;68.00;;;;;;5087186;28;19923;-68
2023/04/27 06:40:58;;;;;;;;;;;8.30;68.00;;;;;;5090659;28;19997;-68
2023/04/27 06:43:25;;;;;;;;;;;8.30;67.80;;;;;;5088545;28;19962;-67
2023/04/27 06:45:52;;;;;;;;;;;8.40;67.80;;;;;;5086029;28;19927;-67
2023/04/27 06:48:22;;;;;;;;;;;8.40;67.60;;;;;;5088572;28;19962;-68
2023/04/27 06:50:50;;;;;;;;;;;8.40;67.50;;;;;;5089570;28;19924;-68
2023/04/27 06:53:17;;;;;;;;;;;8.40;67.50;;;;;;5088611;28;19931;-67
2023/04/27 06:55:44;;;;;;;;;;;8.50;67.70;;;;;;5086898;28;20333;-67
2023/04/27 06:58:11;;;;;;;;;;;8.60;67.60;;;;;;5087824;28;19928;-68
2023/04/27 07:00:38;;;;;;;;;;;8.70;67.30;;;;;;5088195;28;19978;-67
2023/04/27 07:03:05;;;;;;;;;;;8.90;67.00;;;;;;5088754;28;19939;-67
2023/04/27 07:05:33;;;;;;;;;;;9.10;66.30;;;;;;5086575;28;19935;-68
2023/04/27 07:08:02;;;;;;;;;;;9.20;65.90;;;;;;5085554;28;19928;-67
2023/04/27 07:10:29;;;;;;;;;;;9.40;65.40;;;;;;5086416;28;19924;-67
2023/04/27 07:12:55;;;;;;;;;;;9.60;65.00;;;;;;5086583;28;19932;-65
2023/04/27 07:15:22;;;;;;;;;;;9.80;64.10;;;;;;5088236;28;19924;-67
2023/04/27 07:17:50;;;;;;;;;;;10.00;62.80;;;;;;5090018;28;19931;-68
2023/04/27 07:20:17;;;;;;;;;;;10.10;62.00;;;;;;5084675;28;19928;-67
2023/04/27 07:22:44;;;;;;;;;;;10.10;61.70;;;;;;5087921;28;19930;-67
2023/04/27 07:25:12;;;;;;;;;;;10.40;61.50;;;;;;5087370;28;20023;-67
2023/04/27 07:27:40;;;;;;;;;;;10.60;60.10;;;;;;5088437;28;19943;-67
2023/04/27 07:30:08;;;;;;;;;;;10.70;59.90;;;;;;5086959;28;20442;-67
2023/04/27 07:32:36;;;;;;;;;;;10.90;59.40;;;;;;5090761;28;19977;-67
2023/04/27 07:35:02;;;;;;;;;;;11.00;58.80;;;;;;5086795;28;20054;-67
2023/04/27 07:37:29;;;;;;;;;;;11.20;58.50;;;;;;5084833;28;20026;-67
2023/04/27 07:39:56;;;;;;;;;;;11.30;58.40;;;;;;5088807;28;20771;-67
2023/04/27 07:42:25;;;;;;;;;;;11.50;57.50;;;;;;5089130;28;19924;-68
2023/04/27 07:44:52;;;;;;;;;;;11.50;57.20;;;;;;5086746;28;19928;-67
2023/04/27 07:47:19;;;;;;;;;;;11.70;57.30;;;;;;5087182;28;20479;-68
2023/04/27 07:49:46;;;;;;;;;;;11.80;56.30;;;;;;5090261;28;19924;-67
2023/04/27 07:52:13;;;;;;;;;;;12.00;56.10;;;;;;5087555;28;19932;-66
2023/04/27 07:54:40;;;;;;;;;;;12.20;55.90;;;;;;5085392;28;19928;-67
2023/04/27 07:57:10;;;;;;;;;;;12.30;55.10;;;;;;5088891;28;20515;-68
2023/04/27 07:59:38;;;;;;;;;;;12.40;54.60;;;;;;5088191;28;20011;-67
2023/04/27 08:02:06;;;;;;;;;;;12.40;52.80;;;;;;5087692;28;19928;-68
2023/04/27 08:04:32;;;;;;;;;;;12.60;52.40;;;;;;5092412;28;19924;-69
2023/04/27 08:06:59;;;;;;;;;;;12.60;52.30;;;;;;5091131;28;19931;-68
2023/04/27 08:09:26;;;;;;;;;;;12.60;53.10;;;;;;5092885;28;19974;-69
2023/04/27 08:11:53;;;;;;;;;;;12.70;53.30;;;;;;5092090;28;19928;-68
2023/04/27 08:14:20;;;;;;;;;;;12.90;52.70;;;;;;5090551;28;19930;-68
2023/04/27 08:16:50;;;;;;;;;;;13.10;51.20;;;;;;5091966;28;19924;-68
2023/04/27 08:19:18;;;;;;;;;;;13.40;50.10;;;;;;5090575;28;20306;-69
2023/04/27 08:21:44;;;;;;;;;;;13.50;49.90;;;;;;5091717;28;19942;-68
2023/04/27 08:24:11;;;;;;;;;;;13.60;50.50;;;;;;5091193;28;19931;-69
2023/04/27 08:26:38;;;;;;;;;;;13.60;50.50;;;;;;5090091;28;19949;-69
2023/04/27 08:29:05;;;;;;;;;;;13.70;50.20;;;;;;5091853;28;20019;-68
2023/04/27 08:31:32;;;;;;;;;;;13.70;49.60;;;;;;5072626;28;19974;-68
2023/04/27 08:34:00;;;;;;;;;;;13.70;49.50;;;;;;5088708;28;19993;-68
2023/04/27 08:36:27;;;;;;;;;;;13.80;48.60;;;;;;5092778;28;19950;-68
2023/04/27 08:38:54;;;;;;;;;;;14.00;48.40;;;;;;5089678;28;19936;-68
2023/04/27 08:41:21;;;;;;;;;;;14.10;48.30;;;;;;5092744;28;19927;-68
2023/04/27 08:43:49;;;;;;;;;;;14.20;48.10;;;;;;5090502;28;19928;-69
2023/04/27 08:46:18;;;;;;;;;;;14.30;47.70;;;;;;5090542;28;19971;-70
2023/04/27 08:48:45;;;;;;;;;;;14.40;47.00;;;;;;5069126;28;19927;-69
2023/04/27 08:51:14;;;;;;;;;;;14.50;46.60;;;;;;5091407;28;19939;-69
2023/04/27 08:53:45;;;;;;;;;;;14.60;46.80;;;;;;5092272;28;19978;-68
2023/04/27 08:56:12;;;;;;;;;;;14.60;46.80;;;;;;5089102;28;20022;-68
2023/04/27 08:58:39;;;;;;;;;;;14.70;46.70;;;;;;5091648;28;19924;-68
2023/04/27 09:01:09;;;;;;;;;;;14.80;46.20;;;;;;5089541;28;19931;-68
2023/04/27 09:03:36;;;;;;;;;;;14.90;46.10;;;;;;5089492;28;19939;-68
2023/04/27 09:06:03;;;;;;;;;;;15.00;46.20;;;;;;5092809;28;19928;-69
2023/04/27 09:08:40;;;;;;;;;;;15.10;46.20;;;;;;5092148;28;20023;-69
2023/04/27 09:11:07;;;;;;;;;;;15.20;45.90;;;;;;5090298;28;20398;-68
2023/04/27 09:13:34;;;;;;;;;;;15.30;46.00;;;;;;5070138;28;19928;-69
2023/04/27 09:16:01;;;;;;;;;;;15.20;45.00;;;;;;5069126;28;19929;-69
2023/04/27 09:18:28;;;;;;;;;;;15.30;44.90;;;;;;5090146;28;19932;-69
2023/04/27 09:20:55;;;;;;;;;;;15.40;44.10;;;;;;5091973;28;20026;-69
2023/04/27 09:23:26;;;;;;;;;;;15.50;45.00;;;;;;5091693;28;19928;-68
2023/04/27 09:25:55;;;;;;;;;;;15.60;44.70;;;;;;5092752;28;19932;-68
2023/04/27 09:28:23;;;;;;;;;;;15.70;45.40;;;;;;5090977;28;19924;-69
2023/04/27 09:30:54;;;;;;;;;;;15.70;44.90;;;;;;5091420;28;19928;-68
2023/04/27 09:33:24;;;;;;;;;;;15.80;44.50;;;;;;5092729;28;19928;-69
2023/04/27 09:35:50;;;;;;;;;;;15.90;44.70;;;;;;5086122;28;19969;-70
2023/04/27 09:38:18;;;;;;;;;;;16.00;45.10;;;;;;5094246;28;19924;-68
2023/04/27 09:40:44;;;;;;;;;;;16.00;44.00;;;;;;5092364;28;19924;-69
2023/04/27 09:43:13;;;;;;;;;;;16.10;44.90;;;;;;5092525;28;19978;-69
2023/04/27 09:45:39;;;;;;;;;;;16.20;44.40;;;;;;5092448;28;19924;-69
2023/04/27 09:48:06;;;;;;;;;;;16.30;44.70;;;;;;5092033;28;19924;-70
2023/04/27 09:50:35;;;;;;;;;;;16.30;44.30;;;;;;5092919;28;20027;-69
2023/04/27 09:53:02;;;;;;;;;;;16.30;43.90;;;;;;5090264;28;20367;-70
2023/04/27 09:55:32;;;;;;;;;;;16.40;44.30;;;;;;5091380;28;19932;-69
2023/04/27 09:58:06;;;;;;;;;;;16.50;44.20;;;;;;5091197;28;20094;-69
2023/04/27 10:00:42;;;;;;;;;;;16.60;43.20;;;;;;5088784;28;20060;-69
2023/04/27 10:03:15;;;;;;;;;;;16.70;42.70;;;;;;5074956;28;19938;-69
2023/04/27 10:05:50;;;;;;;;;;;17.00;42.50;;;;;;5091880;28;19928;-70
2023/04/27 10:08:17;;;;;;;;;;;17.10;42.40;;;;;;5091744;28;19930;-69
2023/04/27 10:10:47;;;;;;;;;;;17.10;42.90;;;;;;5090343;28;19924;-70
2023/04/27 10:13:21;;;;;;;;;;;17.20;43.20;;;;;;5088132;28;20011;-70
2023/04/27 10:15:50;;;;;;;;;;;17.30;43.10;;;;;;5089114;28;20032;-70
2023/04/27 10:18:25;;;;;;;;;;;17.30;42.40;;;;;;5087622;28;19967;-70
2023/04/27 10:20:52;;;;;;;;;;;17.40;42.60;;;;;;5092131;28;19959;-69
2023/04/27 10:23:23;;;;;;;;;;;17.50;43.10;;;;;;5088045;28;19928;-69
2023/04/27 10:25:50;;;;;;;;;;;17.50;43.10;;;;;;5091405;28;19928;-69
2023/04/27 10:28:17;;;;;;;;;;;17.60;43.10;;;;;;5091548;28;19928;-70
2023/04/27 10:30:47;;;;;;;;;;;17.70;43.10;;;;;;5091829;28;19924;-70
2023/04/27 10:33:22;;;;;;;;;;;17.70;42.60;;;;;;5092579;28;19930;-70
2023/04/27 10:35:59;;;;;;;;;;;17.70;42.50;;;;;;5087690;28;19928;-69
2023/04/27 10:38:29;;;;;;;;;;;17.80;42.60;;;;;;5090392;28;20395;-68
2023/04/27 10:40:57;;;;;;;;;;;17.80;41.80;;;;;;5090333;28;19928;-70
2023/04/27 10:43:25;;;;;;;;;;;17.90;41.90;;;;;;5084427;28;19924;-69
2023/04/27 10:45:52;;;;;;;;;;;18.00;41.70;;;;;;5090370;28;19935;-69
2023/04/27 10:48:20;;;;;;;;;;;18.00;41.90;;;;;;5087579;28;19932;-70
2023/04/27 10:50:47;;;;;;;;;;;18.00;40.70;;;;;;5091001;28;19928;-69
2023/04/27 10:53:16;;;;;;;;;;;18.10;41.50;;;;;;5090793;28;20005;-70
2023/04/27 10:55:43;;;;;;;;;;;18.20;41.50;;;;;;5089505;28;19932;-70
2023/04/27 10:58:10;;;;;;;;;;;18.20;40.40;;;;;;5091372;28;19967;-69
2023/04/27 11:00:40;;;;;;;;;;;18.30;40.60;;;;;;5090557;28;19924;-69
2023/04/27 11:03:11;;;;;;;;;;;18.30;39.80;;;;;;5091318;28;19936;-69
2023/04/27 11:05:40;;;;;;;;;;;18.30;40.40;;;;;;5070552;28;19955;-70
2023/04/27 11:08:07;;;;;;;;;;;18.50;41.10;;;;;;5084799;28;20035;-70
2023/04/27 11:10:35;;;;;;;;;;;18.50;41.00;;;;;;5088551;28;20430;-70
2023/04/27 11:13:06;;;;;;;;;;;18.50;40.40;;;;;;5082919;28;20382;-70
2023/04/27 11:15:41;;;;;;;;;;;18.50;40.00;;;;;;5089859;28;19935;-69
2023/04/27 11:18:08;;;;;;;;;;;18.40;40.10;;;;;;5089008;28;20297;-69
2023/04/27 11:20:35;;;;;;;;;;;18.50;40.30;;;;;;5092168;28;19928;-70
2023/04/27 11:23:07;;;;;;;;;;;18.50;40.20;;;;;;5092678;28;19932;-69
2023/04/27 11:25:34;;;;;;;;;;;18.60;41.10;;;;;;5083412;28;19924;-68
2023/04/27 11:28:01;;;;;;;;;;;18.40;40.10;;;;;;5081924;28;19962;-69
2023/04/27 11:30:27;;;;;;;;;;;18.30;39.80;;;;;;5062798;28;20409;-70
2023/04/27 11:32:54;;;;;;;;;;;18.30;39.50;;;;;;5085211;28;19953;-70
2023/04/27 11:35:32;;;;;;;;;;;18.30;39.10;;;;;;5083329;28;19965;-70
2023/04/27 11:37:59;;;;;;;;;;;18.30;37.80;;;;;;5079217;28;19924;-69
2023/04/27 11:40:28;;;;;;;;;;;18.30;38.70;;;;;;5077337;28;19932;-70
2023/04/27 11:42:58;;;;;;;;;;;18.40;39.10;;;;;;5084258;28;19932;-71
2023/04/27 11:45:26;;;;;;;;;;;18.40;39.50;;;;;;5083772;28;20064;-70
2023/04/27 11:47:53;;;;;;;;;;;18.40;39.30;;;;;;5086327;28;19943;-70
2023/04/27 11:50:23;;;;;;;;;;;18.50;40.20;;;;;;5085145;28;19924;-70
2023/04/27 11:52:51;;;;;;;;;;;18.70;40.00;;;;;;5086197;28;19927;-69
2023/04/27 11:55:20;;;;;;;;;;;18.80;39.70;;;;;;5083297;28;20011;-69
2023/04/27 11:57:48;;;;;;;;;;;18.80;39.80;;;;;;5082503;28;19928;-69
2023/04/27 12:00:16;;;;;;;;;;;18.80;39.30;;;;;;5084473;28;19924;-70
2023/04/27 12:02:43;;;;;;;;;;;18.80;39.70;;;;;;5082660;28;19963;-69
2023/04/27 12:05:10;;;;;;;;;;;18.80;39.50;;;;;;5090065;28;19924;-69
2023/04/27 12:07:37;;;;;;;;;;;18.80;39.50;;;;;;5087564;28;19924;-69
2023/04/27 12:10:04;;;;;;;;;;;18.80;40.00;;;;;;5088650;28;19967;-70
2023/04/27 12:12:32;;;;;;;;;;;18.70;37.40;;;;;;5082533;28;19934;-70
2023/04/27 12:15:00;;;;;;;;;;;18.70;37.40;;;;;;5089688;28;20013;-70
2023/04/27 12:17:27;;;;;;;;;;;18.60;37.60;;;;;;5089203;28;19932;-69
2023/04/27 12:19:54;;;;;;;;;;;18.70;38.90;;;;;;5090869;28;19924;-70
2023/04/27 12:22:21;;;;;;;;;;;18.80;39.80;;;;;;5089182;28;19960;-69
2023/04/27 12:24:48;;;;;;;;;;;18.80;39.60;;;;;;5090604;28;19935;-70
2023/04/27 12:27:15;;;;;;;;;;;18.70;38.90;;;;;;5086322;28;19932;-69
2023/04/27 12:29:42;;;;;;;;;;;18.60;38.80;;;;;;5084049;28;19938;-68
2023/04/27 12:32:10;;;;;;;;;;;18.60;40.20;;;;;;5086318;28;19977;-69
2023/04/27 12:34:38;;;;;;;;;;;18.60;40.00;;;;;;5084064;28;19927;-71
2023/04/27 12:37:05;;;;;;;;;;;18.60;39.50;;;;;;5087222;28;19968;-70
2023/04/27 12:39:32;;;;;;;;;;;18.60;40.30;;;;;;5083819;28;20591;-68
2023/04/27 12:42:01;;;;;;;;;;;18.60;39.70;;;;;;5087320;28;19933;-71
2023/04/27 12:44:27;;;;;;;;;;;18.50;39.30;;;;;;5088518;28;20406;-70
2023/04/27 12:46:55;;;;;;;;;;;18.50;39.10;;;;;;5081868;28;19981;-69
2023/04/27 12:49:23;;;;;;;;;;;18.40;39.00;;;;;;5089214;28;20039;-69
2023/04/27 12:51:51;;;;;;;;;;;18.30;37.20;;;;;;5093570;28;19924;-69
2023/04/27 12:54:17;;;;;;;;;;;18.30;37.90;;;;;;5089505;28;19927;-70
2023/04/27 12:56:44;;;;;;;;;;;18.30;38.50;;;;;;5093025;28;19931;-70
2023/04/27 12:59:11;;;;;;;;;;;18.40;39.20;;;;;;5094944;28;20021;-70
2023/04/27 13:01:38;;;;;;;;;;;18.40;38.90;;;;;;5092447;28;19935;-71
2023/04/27 13:04:06;;;;;;;;;;;18.30;38.70;;;;;;5091308;28;20264;-71
2023/04/27 13:06:37;;;;;;;;;;;18.30;39.40;;;;;;5093838;28;19947;-70
2023/04/27 13:09:05;;;;;;;;;;;18.40;39.20;;;;;;5089628;28;19928;-69
2023/04/27 13:11:32;;;;;;;;;;;18.40;39.70;;;;;;5090478;28;19932;-68
2023/04/27 13:13:59;;;;;;;;;;;18.30;39.40;;;;;;5090929;28;19928;-70
2023/04/27 13:16:25;;;;;;;;;;;18.20;38.50;;;;;;5090643;28;19931;-70
2023/04/27 13:18:54;;;;;;;;;;;18.10;37.80;;;;;;5093040;28;20015;-71
2023/04/27 13:21:21;;;;;;;;;;;18.10;37.30;;;;;;5092314;28;19924;-69
2023/04/27 13:23:50;;;;;;;;;;;18.10;37.50;;;;;;5090163;28;19938;-69
2023/04/27 13:26:17;;;;;;;;;;;18.10;38.10;;;;;;5092236;28;19928;-70
2023/04/27 13:28:45;;;;;;;;;;;18.10;38.50;;;;;;5092798;28;19932;-69
2023/04/27 13:31:12;;;;;;;;;;;18.00;38.90;;;;;;5094091;28;19928;-69
2023/04/27 13:33:40;;;;;;;;;;;18.10;38.40;;;;;;5093647;28;19928;-69
2023/04/27 13:36:11;;;;;;;;;;;18.00;39.60;;;;;;5092656;28;19932;-69
2023/04/27 13:38:38;;;;;;;;;;;18.00;39.30;;;;;;5091842;28;19932;-69
2023/04/27 13:41:06;;;;;;;;;;;17.90;39.20;;;;;;5092014;28;20386;-70
2023/04/27 13:43:33;;;;;;;;;;;17.90;39.30;;;;;;5073138;28;20477;-69
2023/04/27 13:46:00;;;;;;;;;;;17.80;38.80;;;;;;5091636;28;19928;-70
2023/04/27 13:48:27;;;;;;;;;;;17.80;38.50;;;;;;5091591;28;20242;-70
2023/04/27 13:50:54;;;;;;;;;;;17.70;39.40;;;;;;5092406;28;19953;-70
2023/04/27 13:53:24;;;;;;;;;;;17.70;39.50;;;;;;5092404;28;19932;-69
2023/04/27 13:55:51;;;;;;;;;;;17.80;40.80;;;;;;5088900;28;19935;-70
2023/04/27 13:58:19;;;;;;;;;;;17.90;40.90;;;;;;5088785;28;19988;-70
2023/04/27 14:00:47;;;;;;;;;;;17.90;40.50;;;;;;5089819;28;19990;-69
2023/04/27 14:03:16;;;;;;;;;;;17.70;40.10;;;;;;5089277;28;20587;-70
2023/04/27 14:05:43;;;;;;;;;;;17.80;40.10;;;;;;5090141;28;19932;-69
2023/04/27 14:08:12;;;;;;;;;;;17.80;41.90;;;;;;5091611;28;19924;-69
2023/04/27 14:10:39;;;;;;;;;;;17.90;42.00;;;;;;5093243;28;19924;-71
2023/04/27 14:13:06;;;;;;;;;;;17.90;41.20;;;;;;5092528;28;20406;-69
2023/04/27 14:15:36;;;;;;;;;;;17.80;41.10;;;;;;5094382;28;19928;-68
2023/04/27 14:18:03;;;;;;;;;;;17.80;39.30;;;;;;5090570;28;19931;-69
2023/04/27 14:20:30;;;;;;;;;;;17.70;39.10;;;;;;5090366;28;20306;-70
2023/04/27 14:22:57;;;;;;;;;;;17.60;39.00;;;;;;5091629;28;19966;-71
2023/04/27 14:25:24;;;;;;;;;;;17.60;39.50;;;;;;5092647;28;19941;-69